Time;durP1;ratioP1;P1;durP2;ratioP2;P2;SDS_P1;SDS_P2;PMS_P1;PMS_P2;Temp;Humidity;BMP_temperature;BMP_pressure;BME280_temperature;BME280_humidity;BME280_pressure;Samples;Min_cycle;Max_cycle;Signal;HPM_P1;HPM_P2
2021/10/11 00:01:53;;;;;;;;;;;20.10;46.90;;;;;;5022249;28;20321;-71
2021/10/11 00:04:19;;;;;;;;;;;20.10;46.90;;;;;;5020586;28;19913;-71
2021/10/11 00:06:44;;;;;;;;;;;20.10;46.90;;;;;;5022175;28;20305;-71
2021/10/11 00:09:10;;;;;;;;;;;20.10;46.90;;;;;;5017183;28;20052;-71
2021/10/11 00:11:35;;;;;;;;;;;20.10;46.90;;;;;;5016224;28;19967;-71
2021/10/11 00:14:01;;;;;;;;;;;20.10;46.90;;;;;;5015442;28;19922;-71
2021/10/11 00:16:26;;;;;;;;;;;20.10;47.00;;;;;;5019604;28;20020;-71
2021/10/11 00:18:52;;;;;;;;;;;20.10;46.90;;;;;;5015902;28;19913;-71
2021/10/11 00:21:18;;;;;;;;;;;20.10;46.90;;;;;;5027016;28;19913;-71
2021/10/11 00:23:44;;;;;;;;;;;20.10;46.90;;;;;;5022136;28;20395;-71
2021/10/11 00:26:10;;;;;;;;;;;20.10;46.90;;;;;;5019695;28;20633;-70
2021/10/11 00:28:35;;;;;;;;;;;20.10;46.90;;;;;;5014106;28;19917;-70
2021/10/11 00:31:01;;;;;;;;;;;20.10;46.90;;;;;;5022683;28;19921;-70
2021/10/11 00:33:26;;;;;;;;;;;20.10;46.90;;;;;;5021654;28;19952;-70
2021/10/11 00:35:52;;;;;;;;;;;20.00;46.90;;;;;;5017834;28;19918;-70
2021/10/11 00:38:17;;;;;;;;;;;20.00;46.90;;;;;;5020255;28;19917;-70
2021/10/11 00:40:42;;;;;;;;;;;20.00;46.90;;;;;;5026605;28;19924;-70
2021/10/11 00:43:08;;;;;;;;;;;20.00;46.90;;;;;;5019242;28;19918;-70
2021/10/11 00:45:33;;;;;;;;;;;20.10;46.90;;;;;;5019738;28;20339;-70
2021/10/11 00:47:59;;;;;;;;;;;20.10;46.90;;;;;;5020291;28;20342;-70
2021/10/11 00:50:24;;;;;;;;;;;20.10;47.00;;;;;;5022301;28;19921;-70
2021/10/11 00:52:50;;;;;;;;;;;20.10;47.00;;;;;;5017141;28;19917;-70
2021/10/11 00:55:15;;;;;;;;;;;20.10;47.00;;;;;;5019794;28;19952;-70
2021/10/11 00:57:41;;;;;;;;;;;20.10;47.00;;;;;;5015089;28;19976;-71
2021/10/11 01:00:07;;;;;;;;;;;20.10;47.00;;;;;;5018441;28;19924;-71
2021/10/11 01:02:32;;;;;;;;;;;20.10;47.00;;;;;;5019748;28;19917;-70
2021/10/11 01:04:58;;;;;;;;;;;20.10;47.60;;;;;;5012200;28;20413;-70
2021/10/11 01:07:23;;;;;;;;;;;20.10;47.00;;;;;;5024558;28;19913;-70
2021/10/11 01:09:49;;;;;;;;;;;20.10;47.00;;;;;;5020472;28;19921;-70
2021/10/11 01:12:14;;;;;;;;;;;20.10;47.10;;;;;;5017882;28;19932;-70
2021/10/11 01:14:40;;;;;;;;;;;20.10;47.10;;;;;;5028616;28;19917;-70
2021/10/11 01:17:06;;;;;;;;;;;20.10;47.10;;;;;;5014832;28;20008;-71
2021/10/11 01:19:31;;;;;;;;;;;20.10;47.10;;;;;;5028053;28;19939;-70
2021/10/11 01:21:57;;;;;;;;;;;20.10;47.10;;;;;;5019529;28;20300;-70
2021/10/11 01:24:22;;;;;;;;;;;20.10;47.10;;;;;;5026828;28;20012;-70
2021/10/11 01:26:48;;;;;;;;;;;20.10;47.10;;;;;;5019995;28;19917;-70
2021/10/11 01:29:14;;;;;;;;;;;20.10;47.10;;;;;;5014322;28;19917;-71
2021/10/11 01:31:42;;;;;;;;;;;20.10;47.10;;;;;;5015170;28;19987;-70
2021/10/11 01:34:07;;;;;;;;;;;20.10;47.10;;;;;;5013508;28;19927;-70
2021/10/11 01:36:33;;;;;;;;;;;20.10;47.10;;;;;;5014231;28;19914;-70
2021/10/11 01:38:59;;;;;;;;;;;20.10;47.10;;;;;;5017010;28;19936;-71
2021/10/11 01:41:26;;;;;;;;;;;20.10;47.10;;;;;;5027292;28;19921;-70
2021/10/11 01:43:51;;;;;;;;;;;20.10;47.10;;;;;;5022928;28;20462;-70
2021/10/11 01:46:19;;;;;;;;;;;20.10;47.40;;;;;;5022922;28;19975;-71
2021/10/11 01:48:45;;;;;;;;;;;20.10;47.10;;;;;;5025191;28;19909;-70
2021/10/11 01:51:12;;;;;;;;;;;20.10;47.10;;;;;;5023096;28;19924;-70
2021/10/11 01:53:37;;;;;;;;;;;20.10;47.20;;;;;;5016952;28;19921;-70
2021/10/11 01:56:03;;;;;;;;;;;20.10;47.20;;;;;;5019870;28;19920;-70
2021/10/11 01:58:29;;;;;;;;;;;20.10;47.10;;;;;;5020880;28;20000;-71
2021/10/11 02:00:54;;;;;;;;;;;20.10;47.20;;;;;;5017686;28;20399;-70
2021/10/11 02:03:20;;;;;;;;;;;20.10;47.10;;;;;;5026217;28;19920;-70
2021/10/11 02:05:45;;;;;;;;;;;20.10;47.10;;;;;;5014387;28;19917;-70
2021/10/11 02:08:11;;;;;;;;;;;20.10;47.10;;;;;;5016770;28;19920;-70
2021/10/11 02:10:36;;;;;;;;;;;20.10;47.20;;;;;;5017932;28;20134;-70
2021/10/11 02:13:02;;;;;;;;;;;20.10;47.20;;;;;;5015301;28;19921;-70
2021/10/11 02:15:27;;;;;;;;;;;20.10;47.20;;;;;;5028893;28;19955;-70
2021/10/11 02:17:53;;;;;;;;;;;20.10;47.20;;;;;;5018456;28;19917;-70
2021/10/11 02:20:19;;;;;;;;;;;20.10;47.20;;;;;;5026359;28;20389;-70
2021/10/11 02:22:44;;;;;;;;;;;20.10;47.20;;;;;;5021027;28;19920;-71
2021/10/11 02:25:10;;;;;;;;;;;20.10;47.20;;;;;;5023504;28;20028;-70
2021/10/11 02:27:36;;;;;;;;;;;20.10;47.20;;;;;;5026676;28;20274;-70
2021/10/11 02:30:02;;;;;;;;;;;20.10;47.20;;;;;;5021521;28;20341;-70
2021/10/11 02:32:28;;;;;;;;;;;20.10;47.20;;;;;;5018069;28;19913;-70
2021/10/11 02:34:53;;;;;;;;;;;20.10;47.30;;;;;;5020430;28;20365;-70
2021/10/11 02:37:19;;;;;;;;;;;20.10;47.20;;;;;;5014240;28;20399;-70
2021/10/11 02:39:44;;;;;;;;;;;20.10;47.20;;;;;;5019202;28;19909;-70
2021/10/11 02:42:10;;;;;;;;;;;20.10;47.20;;;;;;5025691;28;19920;-70
2021/10/11 02:44:35;;;;;;;;;;;20.10;47.20;;;;;;5020544;28;20386;-70
2021/10/11 02:47:01;;;;;;;;;;;20.10;47.20;;;;;;5033773;28;20405;-70
2021/10/11 02:49:26;;;;;;;;;;;20.10;47.20;;;;;;5027335;28;19963;-70
2021/10/11 02:51:51;;;;;;;;;;;20.10;47.20;;;;;;5024469;28;19921;-70
2021/10/11 02:54:17;;;;;;;;;;;20.10;47.30;;;;;;5020233;28;20269;-70
2021/10/11 02:56:43;;;;;;;;;;;20.10;47.30;;;;;;5019418;28;19913;-70
2021/10/11 02:59:09;;;;;;;;;;;20.10;47.20;;;;;;5023221;28;19917;-71
2021/10/11 03:01:34;;;;;;;;;;;20.10;47.30;;;;;;5021995;28;19924;-70
2021/10/11 03:04:00;;;;;;;;;;;20.10;47.20;;;;;;5023260;28;20516;-70
2021/10/11 03:06:25;;;;;;;;;;;20.10;47.20;;;;;;5021661;28;20447;-70
2021/10/11 03:08:51;;;;;;;;;;;20.10;47.20;;;;;;5022006;28;20518;-70
2021/10/11 03:11:16;;;;;;;;;;;20.10;47.30;;;;;;5019311;28;19923;-70
2021/10/11 03:13:41;;;;;;;;;;;20.10;47.30;;;;;;5025705;28;19918;-70
2021/10/11 03:16:07;;;;;;;;;;;20.10;47.30;;;;;;5026287;28;20291;-71
2021/10/11 03:18:33;;;;;;;;;;;20.10;47.20;;;;;;5023413;28;19963;-71
2021/10/11 03:20:59;;;;;;;;;;;20.10;47.20;;;;;;5021577;28;19940;-71
2021/10/11 03:23:25;;;;;;;;;;;20.10;47.20;;;;;;5027559;28;20281;-71
2021/10/11 03:25:50;;;;;;;;;;;20.10;47.30;;;;;;5026434;28;19917;-71
2021/10/11 03:28:16;;;;;;;;;;;20.10;47.30;;;;;;5029804;28;19976;-71
2021/10/11 03:30:41;;;;;;;;;;;20.10;47.30;;;;;;5020083;28;19924;-70
2021/10/11 03:33:07;;;;;;;;;;;20.10;47.40;;;;;;5028420;28;19944;-70
2021/10/11 03:35:32;;;;;;;;;;;20.10;47.40;;;;;;5018681;28;19959;-70
2021/10/11 03:37:58;;;;;;;;;;;20.10;47.30;;;;;;5023099;28;19913;-70
2021/10/11 03:40:24;;;;;;;;;;;20.10;47.30;;;;;;5019514;28;19913;-71
2021/10/11 03:42:49;;;;;;;;;;;20.10;47.30;;;;;;5024365;28;20328;-71
2021/10/11 03:45:15;;;;;;;;;;;20.10;47.30;;;;;;5019190;28;19917;-70
2021/10/11 03:47:40;;;;;;;;;;;20.10;47.30;;;;;;5023609;28;20017;-71
2021/10/11 03:50:06;;;;;;;;;;;20.10;47.40;;;;;;5021358;28;19968;-70
2021/10/11 03:52:31;;;;;;;;;;;20.10;47.40;;;;;;5020974;28;19921;-70
2021/10/11 03:54:57;;;;;;;;;;;20.10;47.40;;;;;;5028172;28;19917;-70
2021/10/11 03:57:23;;;;;;;;;;;20.10;47.30;;;;;;5023589;28;20476;-70
2021/10/11 03:59:49;;;;;;;;;;;20.10;47.30;;;;;;5022227;28;19921;-71
2021/10/11 04:02:15;;;;;;;;;;;20.10;47.30;;;;;;5014272;28;19914;-71
2021/10/11 04:04:40;;;;;;;;;;;20.10;47.30;;;;;;5018171;28;19918;-70
2021/10/11 04:07:11;;;;;;;;;;;20.10;47.30;;;;;;5020297;28;20547;-71
2021/10/11 04:09:38;;;;;;;;;;;20.10;47.30;;;;;;5025887;28;19918;-71
2021/10/11 04:12:09;;;;;;;;;;;20.10;47.40;;;;;;5018297;28;19917;-72
2021/10/11 04:14:35;;;;;;;;;;;20.10;47.40;;;;;;5015665;28;19917;-71
2021/10/11 04:17:00;;;;;;;;;;;20.10;47.40;;;;;;5024061;28;20434;-72
2021/10/11 04:19:26;;;;;;;;;;;20.10;47.40;;;;;;5026648;28;19917;-72
2021/10/11 04:21:51;;;;;;;;;;;20.10;47.40;;;;;;5028539;28;19936;-72
2021/10/11 04:24:17;;;;;;;;;;;20.10;47.40;;;;;;5024525;28;20326;-72
2021/10/11 04:26:42;;;;;;;;;;;20.10;47.40;;;;;;5024890;28;19940;-72
2021/10/11 04:29:08;;;;;;;;;;;20.10;47.40;;;;;;5021136;28;19967;-72
2021/10/11 04:31:33;;;;;;;;;;;20.10;47.40;;;;;;5025042;28;20374;-72
2021/10/11 04:33:59;;;;;;;;;;;20.10;47.40;;;;;;5023796;28;19920;-72
2021/10/11 04:36:26;;;;;;;;;;;20.10;47.40;;;;;;5026396;28;19913;-72
2021/10/11 04:38:51;;;;;;;;;;;20.10;47.40;;;;;;5028300;28;19917;-72
2021/10/11 04:41:17;;;;;;;;;;;20.10;47.40;;;;;;5025673;28;20472;-72
2021/10/11 04:43:42;;;;;;;;;;;20.10;47.40;;;;;;5026058;28;19924;-72
2021/10/11 04:46:08;;;;;;;;;;;20.10;47.40;;;;;;5014706;28;19918;-72
2021/10/11 04:48:34;;;;;;;;;;;20.10;47.40;;;;;;5016847;28;19917;-72
2021/10/11 04:50:59;;;;;;;;;;;20.10;48.10;;;;;;5013754;28;20370;-72
2021/10/11 04:53:25;;;;;;;;;;;20.10;47.40;;;;;;5023328;28;19924;-72
2021/10/11 04:55:50;;;;;;;;;;;20.10;47.40;;;;;;5016019;28;19917;-72
2021/10/11 04:58:16;;;;;;;;;;;20.10;47.40;;;;;;5028436;28;19978;-72
2021/10/11 05:00:41;;;;;;;;;;;20.10;47.40;;;;;;5017790;28;19935;-72
2021/10/11 05:03:07;;;;;;;;;;;20.10;47.40;;;;;;5019855;28;20017;-73
2021/10/11 05:05:33;;;;;;;;;;;20.10;47.40;;;;;;5015616;28;19917;-73
2021/10/11 05:07:59;;;;;;;;;;;20.10;47.40;;;;;;5017416;28;19924;-72
2021/10/11 05:10:25;;;;;;;;;;;20.10;48.10;;;;;;5023700;28;19917;-72
2021/10/11 05:12:50;;;;;;;;;;;20.10;47.40;;;;;;5019972;28;19922;-72
2021/10/11 05:15:16;;;;;;;;;;;20.10;47.40;;;;;;5018522;28;19917;-72
2021/10/11 05:17:41;;;;;;;;;;;20.10;47.40;;;;;;5020846;28;20410;-72
2021/10/11 05:20:07;;;;;;;;;;;20.10;47.40;;;;;;5019686;28;20635;-72
2021/10/11 05:22:33;;;;;;;;;;;20.10;47.40;;;;;;5019227;28;20515;-72
2021/10/11 05:24:58;;;;;;;;;;;20.10;47.40;;;;;;5024273;28;19924;-72
2021/10/11 05:27:24;;;;;;;;;;;20.10;47.40;;;;;;5021210;28;19913;-72
2021/10/11 05:29:49;;;;;;;;;;;20.10;47.60;;;;;;5017652;28;19921;-72
2021/10/11 05:32:15;;;;;;;;;;;20.10;47.50;;;;;;5025536;28;20564;-73
2021/10/11 05:34:40;;;;;;;;;;;20.10;47.40;;;;;;5022087;28;19924;-72
2021/10/11 05:37:06;;;;;;;;;;;20.10;47.40;;;;;;5019107;28;19925;-72
2021/10/11 05:39:31;;;;;;;;;;;20.10;47.40;;;;;;5017309;28;19944;-72
2021/10/11 05:41:57;;;;;;;;;;;20.10;47.40;;;;;;5017702;28;19925;-72
2021/10/11 05:44:22;;;;;;;;;;;20.10;47.30;;;;;;5020005;28;19917;-72
2021/10/11 05:46:48;;;;;;;;;;;20.10;47.50;;;;;;5022862;28;19913;-72
2021/10/11 05:49:14;;;;;;;;;;;20.10;47.40;;;;;;5018550;28;19917;-72
2021/10/11 05:51:39;;;;;;;;;;;20.10;47.40;;;;;;5013857;28;19921;-73
2021/10/11 05:54:05;;;;;;;;;;;20.10;47.30;;;;;;5012600;28;19935;-72
2021/10/11 05:56:30;;;;;;;;;;;20.10;47.30;;;;;;5018948;28;19921;-72
2021/10/11 05:58:56;;;;;;;;;;;20.10;47.30;;;;;;5017002;28;20565;-72
2021/10/11 06:01:21;;;;;;;;;;;20.10;47.30;;;;;;5013148;28;19921;-72
2021/10/11 06:03:46;;;;;;;;;;;20.10;47.30;;;;;;5016136;28;19919;-73
2021/10/11 06:06:12;;;;;;;;;;;20.10;47.20;;;;;;5018731;28;19963;-72
2021/10/11 06:08:37;;;;;;;;;;;20.10;47.20;;;;;;5021720;28;19953;-73
2021/10/11 06:11:03;;;;;;;;;;;20.10;47.20;;;;;;5021642;28;19970;-73
2021/10/11 06:13:28;;;;;;;;;;;20.10;47.20;;;;;;5027670;28;19917;-73
2021/10/11 06:15:54;;;;;;;;;;;20.10;47.20;;;;;;5012762;28;19913;-73
2021/10/11 06:18:19;;;;;;;;;;;20.10;47.20;;;;;;5016133;28;19924;-73
2021/10/11 06:20:45;;;;;;;;;;;20.10;47.30;;;;;;5025832;28;19924;-73
2021/10/11 06:23:12;;;;;;;;;;;20.10;47.20;;;;;;5025711;28;20382;-73
2021/10/11 06:25:38;;;;;;;;;;;20.10;47.20;;;;;;5025107;28;19921;-73
2021/10/11 06:28:03;;;;;;;;;;;20.10;47.20;;;;;;5025082;28;19948;-72
2021/10/11 06:30:28;;;;;;;;;;;20.20;47.30;;;;;;5009966;28;20017;-72
2021/10/11 06:32:54;;;;;;;;;;;20.20;47.20;;;;;;5017252;28;20012;-73
2021/10/11 06:35:19;;;;;;;;;;;20.20;47.20;;;;;;5018624;28;19929;-73
2021/10/11 06:37:45;;;;;;;;;;;20.20;47.20;;;;;;5019405;28;19919;-73
2021/10/11 06:40:10;;;;;;;;;;;20.20;47.20;;;;;;5017362;28;19953;-73
2021/10/11 06:42:36;;;;;;;;;;;20.20;47.20;;;;;;5019085;28;20008;-73
2021/10/11 06:45:02;;;;;;;;;;;20.20;47.20;;;;;;5014005;28;19913;-73
2021/10/11 06:47:27;;;;;;;;;;;20.20;47.10;;;;;;5020266;28;19956;-73
2021/10/11 06:49:53;;;;;;;;;;;20.20;47.20;;;;;;5022850;28;19913;-73
2021/10/11 06:52:18;;;;;;;;;;;20.20;47.20;;;;;;5021225;28;20024;-73
2021/10/11 06:54:44;;;;;;;;;;;20.20;47.20;;;;;;5020212;28;20381;-73
2021/10/11 06:57:09;;;;;;;;;;;20.20;47.20;;;;;;5020419;28;19924;-73
2021/10/11 06:59:35;;;;;;;;;;;20.10;47.10;;;;;;5013126;28;19914;-73
2021/10/11 07:02:01;;;;;;;;;;;20.10;47.10;;;;;;5016130;28;19917;-73
2021/10/11 07:04:26;;;;;;;;;;;20.10;47.10;;;;;;5013215;28;19920;-73
2021/10/11 07:06:52;;;;;;;;;;;20.10;47.10;;;;;;5021953;28;20001;-73
2021/10/11 07:09:17;;;;;;;;;;;20.20;47.10;;;;;;5026031;28;19957;-72
2021/10/11 07:11:43;;;;;;;;;;;20.10;47.00;;;;;;5019537;28;19928;-72
2021/10/11 07:14:08;;;;;;;;;;;20.10;47.10;;;;;;5019606;28;19920;-73
2021/10/11 07:16:33;;;;;;;;;;;20.10;47.10;;;;;;5023402;28;19971;-72
2021/10/11 07:18:59;;;;;;;;;;;20.10;47.20;;;;;;5020810;28;20015;-72
2021/10/11 07:21:24;;;;;;;;;;;20.20;47.10;;;;;;5014697;28;20395;-73
2021/10/11 07:23:50;;;;;;;;;;;20.20;47.20;;;;;;5010663;28;20389;-73
2021/10/11 07:26:15;;;;;;;;;;;20.20;47.20;;;;;;5013172;28;19964;-72
2021/10/11 07:28:41;;;;;;;;;;;20.20;47.30;;;;;;5010941;28;19925;-73
2021/10/11 07:31:06;;;;;;;;;;;20.20;47.30;;;;;;5016011;28;20545;-73
2021/10/11 07:33:32;;;;;;;;;;;20.20;47.20;;;;;;5018179;28;19925;-73
2021/10/11 07:35:57;;;;;;;;;;;20.20;47.20;;;;;;5015292;28;19925;-73
2021/10/11 07:38:23;;;;;;;;;;;20.20;47.20;;;;;;5015527;28;20381;-73
2021/10/11 07:40:49;;;;;;;;;;;20.20;47.30;;;;;;5019469;28;20329;-73
2021/10/11 07:43:14;;;;;;;;;;;20.20;47.20;;;;;;5017371;28;20347;-73
2021/10/11 07:45:40;;;;;;;;;;;20.20;47.10;;;;;;5018781;28;20413;-72
2021/10/11 07:48:05;;;;;;;;;;;20.20;47.20;;;;;;5015563;28;19917;-72
2021/10/11 07:50:31;;;;;;;;;;;20.20;47.40;;;;;;5019004;28;19925;-72
2021/10/11 07:52:56;;;;;;;;;;;20.20;47.20;;;;;;5018013;28;19957;-72
2021/10/11 07:55:22;;;;;;;;;;;20.20;47.20;;;;;;5025870;28;19999;-72
2021/10/11 07:57:47;;;;;;;;;;;20.20;47.30;;;;;;5011551;28;19924;-73
2021/10/11 08:00:14;;;;;;;;;;;20.20;47.30;;;;;;5022806;28;19939;-72
2021/10/11 08:02:40;;;;;;;;;;;20.20;47.40;;;;;;5017336;28;19924;-72
2021/10/11 08:05:06;;;;;;;;;;;20.20;47.40;;;;;;5024695;28;19921;-72
2021/10/11 08:07:31;;;;;;;;;;;20.20;47.40;;;;;;5020697;28;20397;-72
2021/10/11 08:09:57;;;;;;;;;;;20.20;47.50;;;;;;5023839;28;20012;-72
2021/10/11 08:12:22;;;;;;;;;;;20.20;47.50;;;;;;5022375;28;19917;-72
2021/10/11 08:14:48;;;;;;;;;;;20.20;47.50;;;;;;5021020;28;20568;-72
2021/10/11 08:17:13;;;;;;;;;;;20.20;47.40;;;;;;5018732;28;19917;-72
2021/10/11 08:19:39;;;;;;;;;;;20.20;47.40;;;;;;5017096;28;20362;-72
2021/10/11 08:22:05;;;;;;;;;;;20.20;47.40;;;;;;5018602;28;19924;-72
2021/10/11 08:24:31;;;;;;;;;;;20.20;47.50;;;;;;5024562;28;19933;-72
2021/10/11 08:26:56;;;;;;;;;;;20.10;47.40;;;;;;5020880;28;19917;-72
2021/10/11 08:29:22;;;;;;;;;;;20.10;47.40;;;;;;5018330;28;19921;-72
2021/10/11 08:31:47;;;;;;;;;;;20.10;47.50;;;;;;5015683;28;20301;-72
2021/10/11 08:34:13;;;;;;;;;;;20.10;47.50;;;;;;5025449;28;19928;-72
2021/10/11 08:36:38;;;;;;;;;;;20.10;47.50;;;;;;5022489;28;20443;-72
2021/10/11 08:39:04;;;;;;;;;;;20.10;47.50;;;;;;5015269;28;19917;-72
2021/10/11 08:41:30;;;;;;;;;;;20.10;47.50;;;;;;5018177;28;20354;-72
2021/10/11 08:43:55;;;;;;;;;;;20.10;47.50;;;;;;5019833;28;19913;-72
2021/10/11 08:46:22;;;;;;;;;;;20.10;47.40;;;;;;5021089;28;19964;-72
2021/10/11 08:48:48;;;;;;;;;;;20.10;47.50;;;;;;5015068;28;20443;-72
2021/10/11 08:51:13;;;;;;;;;;;20.10;47.50;;;;;;5018383;28;19927;-72
2021/10/11 08:53:39;;;;;;;;;;;20.10;47.50;;;;;;5015676;28;20313;-72
2021/10/11 08:56:04;;;;;;;;;;;20.10;47.50;;;;;;5029611;28;19920;-72
2021/10/11 08:58:45;;;;;;;;;;;20.10;47.50;;;;;;5014452;28;19925;-72
2021/10/11 09:01:11;;;;;;;;;;;20.10;47.50;;;;;;5029700;28;19920;-73
2021/10/11 09:03:36;;;;;;;;;;;20.10;47.50;;;;;;5020371;28;19913;-73
2021/10/11 09:06:11;;;;;;;;;;;20.10;47.50;;;;;;5029052;28;19943;-72
2021/10/11 09:08:37;;;;;;;;;;;20.20;47.60;;;;;;5016007;28;19918;-72
2021/10/11 09:11:10;;;;;;;;;;;20.10;47.50;;;;;;5026428;28;20012;-72
2021/10/11 09:13:38;;;;;;;;;;;20.20;47.60;;;;;;5017223;28;20108;-72
2021/10/11 09:16:04;;;;;;;;;;;20.20;47.60;;;;;;5019612;28;20739;-72
2021/10/11 09:18:30;;;;;;;;;;;20.20;47.50;;;;;;5018623;28;19971;-72
2021/10/11 09:20:55;;;;;;;;;;;20.20;47.50;;;;;;5016463;28;19913;-72
2021/10/11 09:23:23;;;;;;;;;;;20.20;47.50;;;;;;5017854;28;20016;-72
2021/10/11 09:25:49;;;;;;;;;;;20.20;47.50;;;;;;5029237;28;19921;-72
2021/10/11 09:28:17;;;;;;;;;;;20.20;47.50;;;;;;5023026;28;19963;-72
2021/10/11 09:30:45;;;;;;;;;;;20.20;47.50;;;;;;5026018;28;20365;-72
2021/10/11 09:33:12;;;;;;;;;;;20.20;47.40;;;;;;5015306;28;20441;-72
2021/10/11 09:35:38;;;;;;;;;;;20.20;47.40;;;;;;5024730;28;19928;-72
2021/10/11 09:38:15;;;;;;;;;;;20.20;47.40;;;;;;5017571;28;19925;-72
2021/10/11 09:40:41;;;;;;;;;;;20.20;47.40;;;;;;5023135;28;19918;-72
2021/10/11 09:43:17;;;;;;;;;;;20.20;47.40;;;;;;5016403;28;20268;-72
2021/10/11 09:45:43;;;;;;;;;;;20.20;47.40;;;;;;5024150;28;20011;-72
2021/10/11 09:48:09;;;;;;;;;;;20.10;47.30;;;;;;5025727;28;20396;-72
2021/10/11 09:50:35;;;;;;;;;;;20.10;47.30;;;;;;5022476;28;19921;-71
2021/10/11 09:53:02;;;;;;;;;;;20.10;47.30;;;;;;5023921;28;19918;-70
2021/10/11 09:55:27;;;;;;;;;;;20.10;47.30;;;;;;5011242;28;19913;-72
2021/10/11 09:57:53;;;;;;;;;;;20.10;47.30;;;;;;5025668;28;19928;-72
2021/10/11 10:00:18;;;;;;;;;;;20.10;47.30;;;;;;5019423;28;19917;-71
2021/10/11 10:02:46;;;;;;;;;;;20.10;47.30;;;;;;5022330;28;19917;-72
2021/10/11 10:05:14;;;;;;;;;;;20.10;47.30;;;;;;5022362;28;19917;-73
2021/10/11 10:07:41;;;;;;;;;;;20.10;47.30;;;;;;5018625;28;20392;-72
2021/10/11 10:10:06;;;;;;;;;;;20.10;47.30;;;;;;5016309;28;19946;-71
2021/10/11 10:12:33;;;;;;;;;;;20.10;47.30;;;;;;5014791;28;19917;-73
2021/10/11 10:14:59;;;;;;;;;;;20.10;47.30;;;;;;5020845;28;19917;-71
2021/10/11 10:17:28;;;;;;;;;;;20.10;47.30;;;;;;5024486;28;19921;-72
2021/10/11 10:20:02;;;;;;;;;;;20.10;47.20;;;;;;5021975;28;19938;-72
2021/10/11 10:22:28;;;;;;;;;;;20.10;47.20;;;;;;5017547;28;19925;-72
2021/10/11 10:25:02;;;;;;;;;;;20.10;47.10;;;;;;5024896;28;20385;-73
2021/10/11 10:27:33;;;;;;;;;;;20.10;47.10;;;;;;5021953;28;19913;-72
2021/10/11 10:29:59;;;;;;;;;;;20.10;47.10;;;;;;5027244;28;19921;-72
2021/10/11 10:32:26;;;;;;;;;;;20.10;47.10;;;;;;5013449;28;21311;-72
2021/10/11 10:35:00;;;;;;;;;;;20.10;47.10;;;;;;5017363;28;19913;-71
2021/10/11 10:37:36;;;;;;;;;;;20.10;47.10;;;;;;5015323;28;19921;-72
2021/10/11 10:40:08;;;;;;;;;;;20.10;47.10;;;;;;5017569;28;19917;-72
2021/10/11 10:42:34;;;;;;;;;;;20.10;47.10;;;;;;5034014;28;19924;-72
2021/10/11 10:45:00;;;;;;;;;;;20.10;47.10;;;;;;5017397;28;19921;-72
2021/10/11 10:47:31;;;;;;;;;;;20.10;47.00;;;;;;5026672;28;19917;-72
2021/10/11 10:49:56;;;;;;;;;;;20.10;47.00;;;;;;5022034;28;19963;-72
2021/10/11 10:52:22;;;;;;;;;;;20.10;47.00;;;;;;5020015;28;19921;-72
2021/10/11 10:54:49;;;;;;;;;;;20.10;46.90;;;;;;5025698;28;20400;-72
2021/10/11 10:57:22;;;;;;;;;;;20.10;46.90;;;;;;5012891;28;19917;-73
2021/10/11 10:59:55;;;;;;;;;;;20.10;46.90;;;;;;5020963;28;20012;-72
2021/10/11 11:02:20;;;;;;;;;;;20.10;46.90;;;;;;5018582;28;19921;-72
2021/10/11 11:04:53;;;;;;;;;;;20.10;46.90;;;;;;5025991;28;19917;-71
2021/10/11 11:07:24;;;;;;;;;;;20.10;46.90;;;;;;5027256;28;20803;-72
2021/10/11 11:09:49;;;;;;;;;;;20.10;46.90;;;;;;5025916;28;20304;-72
2021/10/11 11:12:25;;;;;;;;;;;20.10;46.90;;;;;;5025514;28;19917;-72
2021/10/11 11:14:52;;;;;;;;;;;20.10;46.90;;;;;;5014958;28;19938;-72
2021/10/11 11:17:26;;;;;;;;;;;20.10;46.90;;;;;;5020631;28;19913;-73
2021/10/11 11:19:51;;;;;;;;;;;20.00;46.90;;;;;;5021122;28;19917;-72
2021/10/11 11:22:25;;;;;;;;;;;20.00;46.90;;;;;;5017052;28;19914;-72
2021/10/11 11:24:51;;;;;;;;;;;20.00;46.90;;;;;;5017750;28;19923;-73
2021/10/11 11:27:27;;;;;;;;;;;20.00;46.80;;;;;;5017468;28;19913;-72
2021/10/11 11:29:56;;;;;;;;;;;20.00;46.80;;;;;;5031027;28;19952;-72
2021/10/11 11:32:22;;;;;;;;;;;20.00;46.70;;;;;;5025050;28;19925;-73
2021/10/11 11:34:47;;;;;;;;;;;20.00;46.70;;;;;;5027647;28;19917;-73
2021/10/11 11:37:12;;;;;;;;;;;20.00;46.90;;;;;;5027678;28;19913;-72
2021/10/11 11:39:38;;;;;;;;;;;20.00;46.90;;;;;;5025036;28;20609;-72
2021/10/11 11:42:03;;;;;;;;;;;20.00;46.90;;;;;;5019376;28;20217;-73
2021/10/11 11:44:29;;;;;;;;;;;20.00;47.00;;;;;;5023808;28;19917;-73
2021/10/11 11:46:58;;;;;;;;;;;20.00;47.00;;;;;;5022529;28;19913;-72
2021/10/11 11:49:24;;;;;;;;;;;20.00;47.10;;;;;;5022980;28;19913;-71
2021/10/11 11:51:49;;;;;;;;;;;20.10;47.10;;;;;;5024797;28;19921;-72
2021/10/11 11:54:16;;;;;;;;;;;20.10;47.10;;;;;;5022908;28;19913;-73
2021/10/11 11:56:41;;;;;;;;;;;20.10;47.10;;;;;;5025985;28;19924;-77
2021/10/11 11:59:07;;;;;;;;;;;20.10;47.10;;;;;;5022656;28;20374;-72
2021/10/11 12:01:33;;;;;;;;;;;20.10;47.20;;;;;;5028585;28;19952;-74
2021/10/11 12:04:00;;;;;;;;;;;20.10;47.10;;;;;;5025294;28;19917;-72
2021/10/11 12:06:29;;;;;;;;;;;20.10;47.20;;;;;;5029175;28;19919;-72
2021/10/11 12:08:55;;;;;;;;;;;20.10;47.20;;;;;;5026637;28;19917;-72
2021/10/11 12:11:20;;;;;;;;;;;20.10;47.20;;;;;;5018420;28;20332;-72
2021/10/11 12:13:46;;;;;;;;;;;20.10;47.20;;;;;;5024389;28;19921;-73
2021/10/11 12:16:13;;;;;;;;;;;20.10;47.20;;;;;;5027846;28;19919;-73
2021/10/11 12:18:42;;;;;;;;;;;20.10;47.20;;;;;;5025587;28;19923;-73
2021/10/11 12:21:26;;;;;;;;;;;20.10;47.30;;;;;;5020313;28;20377;-72
2021/10/11 12:23:53;;;;;;;;;;;20.10;47.30;;;;;;5025742;28;19917;-73
2021/10/11 12:26:19;;;;;;;;;;;20.10;47.30;;;;;;5022942;28;19921;-72
2021/10/11 12:28:51;;;;;;;;;;;20.10;47.30;;;;;;5021204;28;19917;-72
2021/10/11 12:31:21;;;;;;;;;;;20.10;47.30;;;;;;5019644;28;20008;-72
2021/10/11 12:33:46;;;;;;;;;;;20.10;47.40;;;;;;5028177;28;20016;-73
2021/10/11 12:36:12;;;;;;;;;;;20.10;47.40;;;;;;5021190;28;19992;-72
2021/10/11 12:38:39;;;;;;;;;;;20.10;47.40;;;;;;5023597;28;19916;-72
2021/10/11 12:41:15;;;;;;;;;;;20.10;47.40;;;;;;5029551;28;19917;-72
2021/10/11 12:43:53;;;;;;;;;;;20.10;47.40;;;;;;5024584;28;20008;-72
2021/10/11 12:46:19;;;;;;;;;;;20.10;47.40;;;;;;5021054;28;19925;-72
2021/10/11 12:48:50;;;;;;;;;;;20.10;47.40;;;;;;5015887;28;19976;-72
2021/10/11 12:51:32;;;;;;;;;;;20.10;47.40;;;;;;5022031;28;20293;-71
2021/10/11 12:54:00;;;;;;;;;;;20.10;47.40;;;;;;5024893;28;19917;-72
2021/10/11 12:56:26;;;;;;;;;;;20.10;47.40;;;;;;5017809;28;19920;-72
2021/10/11 12:59:02;;;;;;;;;;;20.10;47.40;;;;;;5021844;28;19914;-72
2021/10/11 13:01:28;;;;;;;;;;;20.10;47.40;;;;;;5018929;28;19944;-72
2021/10/11 13:03:53;;;;;;;;;;;20.10;47.40;;;;;;5020384;28;20018;-72
2021/10/11 13:06:23;;;;;;;;;;;20.10;47.40;;;;;;5016141;28;19917;-72
2021/10/11 13:08:49;;;;;;;;;;;20.00;47.40;;;;;;5020403;28;19927;-72
2021/10/11 13:11:14;;;;;;;;;;;20.10;47.40;;;;;;5017373;28;19951;-72
2021/10/11 13:13:40;;;;;;;;;;;20.00;47.30;;;;;;5026596;28;19913;-72
2021/10/11 13:16:05;;;;;;;;;;;20.00;47.20;;;;;;5025414;28;19960;-72
2021/10/11 13:18:31;;;;;;;;;;;20.00;47.20;;;;;;5018682;28;19937;-72
2021/10/11 13:20:56;;;;;;;;;;;20.00;47.20;;;;;;5024662;28;20361;-72
2021/10/11 13:23:21;;;;;;;;;;;20.00;47.20;;;;;;5020338;28;20270;-73
2021/10/11 13:25:47;;;;;;;;;;;20.00;47.20;;;;;;5022732;28;19949;-73
2021/10/11 13:28:13;;;;;;;;;;;20.00;47.20;;;;;;5027905;28;19913;-71
2021/10/11 13:31:30;;;;;;;;;;;20.00;47.20;;;;;;5019052;28;19921;-73
2021/10/11 14:28:43;;;;;;;;;;;20.00;46.90;;;;;;5017903;28;19971;-73
2021/10/11 14:31:34;;;;;;;;;;;20.00;46.90;;;;;;5024247;28;19921;-72
2021/10/11 15:58:32;;;;;;;;;;;20.00;47.10;;;;;;5015567;28;19923;-76
2021/10/11 16:01:04;;;;;;;;;;;20.00;47.10;;;;;;5017699;28;19920;-74
2021/10/11 16:06:04;;;;;;;;;;;20.00;47.20;;;;;;5022144;28;20641;-76
2021/10/11 16:08:30;;;;;;;;;;;20.00;47.10;;;;;;5016369;28;19913;-76
2021/10/11 16:10:55;;;;;;;;;;;20.00;47.20;;;;;;5015318;28;19944;-75
2021/10/11 16:13:21;;;;;;;;;;;20.00;47.20;;;;;;5016964;28;20493;-74
2021/10/11 16:15:46;;;;;;;;;;;20.00;47.20;;;;;;5015270;28;19917;-74
2021/10/11 16:18:12;;;;;;;;;;;20.10;47.40;;;;;;5021043;28;19967;-75
2021/10/11 16:20:38;;;;;;;;;;;20.10;47.50;;;;;;5021611;28;19919;-75
2021/10/11 16:23:05;;;;;;;;;;;20.00;47.50;;;;;;5017424;28;19992;-75
2021/10/11 16:25:30;;;;;;;;;;;20.00;47.40;;;;;;5021003;28;19917;-75
2021/10/11 16:27:56;;;;;;;;;;;20.00;47.40;;;;;;5018031;28;20495;-75
2021/10/11 16:30:21;;;;;;;;;;;20.00;47.40;;;;;;5024073;28;19928;-75
2021/10/11 16:32:47;;;;;;;;;;;20.00;47.50;;;;;;5030668;28;19921;-74
2021/10/11 16:35:12;;;;;;;;;;;20.10;47.40;;;;;;5021826;28;19992;-73